sensor_id;sensor_type;location;lat;lon;timestamp;P1;durP1;ratioP1;P2;durP2;ratioP2
14554;SDS011;7364;50.870;4.722;2023-09-19T00:00:19;12.47;;;3.50;;
14554;SDS011;7364;50.870;4.722;2023-09-19T00:02:51;9.13;;;3.13;;
14554;SDS011;7364;50.870;4.722;2023-09-19T00:05:21;9.13;;;3.33;;
14554;SDS011;7364;50.870;4.722;2023-09-19T00:07:49;8.10;;;3.17;;
14554;SDS011;7364;50.870;4.722;2023-09-19T00:10:19;10.07;;;2.70;;
14554;SDS011;7364;50.870;4.722;2023-09-19T00:12:51;9.80;;;3.37;;
14554;SDS011;7364;50.870;4.722;2023-09-19T00:15:20;14.87;;;3.57;;
14554;SDS011;7364;50.870;4.722;2023-09-19T00:17:47;8.10;;;2.53;;
14554;SDS011;7364;50.870;4.722;2023-09-19T00:20:18;9.83;;;2.87;;
14554;SDS011;7364;50.870;4.722;2023-09-19T00:22:48;4.83;;;2.40;;
14554;SDS011;7364;50.870;4.722;2023-09-19T00:25:17;8.67;;;2.83;;
14554;SDS011;7364;50.870;4.722;2023-09-19T00:27:44;11.37;;;3.17;;
14554;SDS011;7364;50.870;4.722;2023-09-19T00:30:18;7.60;;;2.70;;
14554;SDS011;7364;50.870;4.722;2023-09-19T00:32:46;8.17;;;3.27;;
14554;SDS011;7364;50.870;4.722;2023-09-19T00:35:14;3.83;;;2.50;;
14554;SDS011;7364;50.870;4.722;2023-09-19T00:37:41;9.93;;;3.10;;
14554;SDS011;7364;50.870;4.722;2023-09-19T00:40:10;7.00;;;2.43;;
14554;SDS011;7364;50.870;4.722;2023-09-19T00:42:40;8.63;;;3.17;;
14554;SDS011;7364;50.870;4.722;2023-09-19T00:45:08;8.93;;;3.03;;
14554;SDS011;7364;50.870;4.722;2023-09-19T00:47:42;12.57;;;3.20;;
14554;SDS011;7364;50.870;4.722;2023-09-19T00:50:14;5.57;;;3.00;;
14554;SDS011;7364;50.870;4.722;2023-09-19T00:52:43;6.00;;;2.43;;
14554;SDS011;7364;50.870;4.722;2023-09-19T00:55:11;6.87;;;2.87;;
14554;SDS011;7364;50.870;4.722;2023-09-19T00:57:39;6.57;;;3.17;;
14554;SDS011;7364;50.870;4.722;2023-09-19T01:00:08;9.17;;;3.50;;
14554;SDS011;7364;50.870;4.722;2023-09-19T01:02:42;11.27;;;3.40;;
14554;SDS011;7364;50.870;4.722;2023-09-19T01:05:11;6.60;;;2.57;;
14554;SDS011;7364;50.870;4.722;2023-09-19T01:10:15;9.73;;;3.10;;
14554;SDS011;7364;50.870;4.722;2023-09-19T01:12:48;6.40;;;2.60;;
14554;SDS011;7364;50.870;4.722;2023-09-19T01:15:31;6.43;;;2.90;;
14554;SDS011;7364;50.870;4.722;2023-09-19T01:18:13;7.23;;;3.03;;
14554;SDS011;7364;50.870;4.722;2023-09-19T01:21:00;8.47;;;3.17;;
14554;SDS011;7364;50.870;4.722;2023-09-19T01:23:37;9.03;;;3.07;;
14554;SDS011;7364;50.870;4.722;2023-09-19T01:26:30;7.43;;;2.63;;
14554;SDS011;7364;50.870;4.722;2023-09-19T01:29:23;8.13;;;3.20;;
14554;SDS011;7364;50.870;4.722;2023-09-19T01:32:03;6.97;;;2.70;;
14554;SDS011;7364;50.870;4.722;2023-09-19T01:34:43;8.43;;;3.30;;
14554;SDS011;7364;50.870;4.722;2023-09-19T01:37:12;9.07;;;2.90;;
14554;SDS011;7364;50.870;4.722;2023-09-19T01:39:43;13.00;;;3.37;;
14554;SDS011;7364;50.870;4.722;2023-09-19T01:42:16;6.97;;;3.10;;
14554;SDS011;7364;50.870;4.722;2023-09-19T01:44:52;6.77;;;2.77;;
14554;SDS011;7364;50.870;4.722;2023-09-19T01:47:28;12.47;;;3.10;;
14554;SDS011;7364;50.870;4.722;2023-09-19T01:50:07;8.10;;;2.73;;
14554;SDS011;7364;50.870;4.722;2023-09-19T01:52:46;8.93;;;2.67;;
14554;SDS011;7364;50.870;4.722;2023-09-19T01:55:16;9.03;;;3.10;;
14554;SDS011;7364;50.870;4.722;2023-09-19T01:57:49;6.17;;;2.87;;
14554;SDS011;7364;50.870;4.722;2023-09-19T02:00:21;9.07;;;3.77;;
14554;SDS011;7364;50.870;4.722;2023-09-19T02:02:51;6.10;;;2.67;;
14554;SDS011;7364;50.870;4.722;2023-09-19T02:05:24;8.50;;;3.37;;
14554;SDS011;7364;50.870;4.722;2023-09-19T02:07:52;9.10;;;3.17;;
14554;SDS011;7364;50.870;4.722;2023-09-19T02:10:21;9.97;;;2.93;;
14554;SDS011;7364;50.870;4.722;2023-09-19T02:12:49;6.00;;;2.97;;
14554;SDS011;7364;50.870;4.722;2023-09-19T02:15:17;9.67;;;3.40;;
14554;SDS011;7364;50.870;4.722;2023-09-19T02:17:44;11.70;;;3.07;;
14554;SDS011;7364;50.870;4.722;2023-09-19T02:20:13;11.03;;;3.23;;
14554;SDS011;7364;50.870;4.722;2023-09-19T02:22:42;11.00;;;3.20;;
14554;SDS011;7364;50.870;4.722;2023-09-19T02:25:10;7.17;;;3.10;;
14554;SDS011;7364;50.870;4.722;2023-09-19T02:27:40;7.70;;;3.40;;
14554;SDS011;7364;50.870;4.722;2023-09-19T02:30:08;11.03;;;3.30;;
14554;SDS011;7364;50.870;4.722;2023-09-19T02:32:36;6.77;;;2.80;;
14554;SDS011;7364;50.870;4.722;2023-09-19T02:35:05;7.57;;;3.30;;
14554;SDS011;7364;50.870;4.722;2023-09-19T02:37:37;8.10;;;3.00;;
14554;SDS011;7364;50.870;4.722;2023-09-19T02:40:05;5.73;;;3.10;;
14554;SDS011;7364;50.870;4.722;2023-09-19T02:42:44;9.23;;;3.47;;
14554;SDS011;7364;50.870;4.722;2023-09-19T02:45:15;11.87;;;4.10;;
14554;SDS011;7364;50.870;4.722;2023-09-19T02:47:43;7.17;;;2.50;;
14554;SDS011;7364;50.870;4.722;2023-09-19T02:50:11;9.03;;;3.17;;
14554;SDS011;7364;50.870;4.722;2023-09-19T02:52:42;8.53;;;2.73;;
14554;SDS011;7364;50.870;4.722;2023-09-19T02:55:10;11.47;;;3.30;;
14554;SDS011;7364;50.870;4.722;2023-09-19T02:57:45;9.83;;;3.47;;
14554;SDS011;7364;50.870;4.722;2023-09-19T03:00:13;7.20;;;3.23;;
14554;SDS011;7364;50.870;4.722;2023-09-19T03:02:41;5.90;;;2.90;;
14554;SDS011;7364;50.870;4.722;2023-09-19T03:05:09;9.53;;;3.23;;
14554;SDS011;7364;50.870;4.722;2023-09-19T03:07:37;13.20;;;4.17;;
14554;SDS011;7364;50.870;4.722;2023-09-19T03:10:07;15.27;;;3.60;;
14554;SDS011;7364;50.870;4.722;2023-09-19T03:12:36;10.70;;;3.97;;
14554;SDS011;7364;50.870;4.722;2023-09-19T03:15:05;11.10;;;3.37;;
14554;SDS011;7364;50.870;4.722;2023-09-19T03:17:35;9.57;;;3.37;;
14554;SDS011;7364;50.870;4.722;2023-09-19T03:20:02;8.77;;;3.27;;
14554;SDS011;7364;50.870;4.722;2023-09-19T03:22:34;12.23;;;4.13;;
14554;SDS011;7364;50.870;4.722;2023-09-19T03:25:01;10.23;;;3.30;;
14554;SDS011;7364;50.870;4.722;2023-09-19T03:27:35;9.77;;;3.27;;
14554;SDS011;7364;50.870;4.722;2023-09-19T03:30:02;7.33;;;3.80;;
14554;SDS011;7364;50.870;4.722;2023-09-19T03:32:33;8.10;;;3.03;;
14554;SDS011;7364;50.870;4.722;2023-09-19T03:35:01;7.20;;;3.70;;
14554;SDS011;7364;50.870;4.722;2023-09-19T03:37:30;9.27;;;3.50;;
14554;SDS011;7364;50.870;4.722;2023-09-19T03:39:59;7.93;;;3.87;;
14554;SDS011;7364;50.870;4.722;2023-09-19T03:42:30;6.93;;;3.07;;
14554;SDS011;7364;50.870;4.722;2023-09-19T03:44:59;11.40;;;4.00;;
14554;SDS011;7364;50.870;4.722;2023-09-19T03:47:30;11.10;;;3.57;;
14554;SDS011;7364;50.870;4.722;2023-09-19T03:49:58;11.47;;;3.57;;
14554;SDS011;7364;50.870;4.722;2023-09-19T03:52:25;9.17;;;3.17;;
14554;SDS011;7364;50.870;4.722;2023-09-19T03:54:53;9.20;;;3.30;;
14554;SDS011;7364;50.870;4.722;2023-09-19T03:57:20;14.57;;;3.40;;
14554;SDS011;7364;50.870;4.722;2023-09-19T03:59:55;11.00;;;3.57;;
14554;SDS011;7364;50.870;4.722;2023-09-19T04:02:24;7.83;;;3.67;;
14554;SDS011;7364;50.870;4.722;2023-09-19T04:04:51;13.87;;;3.50;;
14554;SDS011;7364;50.870;4.722;2023-09-19T04:07:19;8.17;;;3.50;;
14554;SDS011;7364;50.870;4.722;2023-09-19T04:09:47;10.83;;;3.23;;
14554;SDS011;7364;50.870;4.722;2023-09-19T04:12:15;10.07;;;3.60;;
14554;SDS011;7364;50.870;4.722;2023-09-19T04:14:43;8.87;;;3.13;;
14554;SDS011;7364;50.870;4.722;2023-09-19T04:17:10;10.73;;;3.93;;
14554;SDS011;7364;50.870;4.722;2023-09-19T04:19:39;9.17;;;3.93;;
14554;SDS011;7364;50.870;4.722;2023-09-19T04:22:08;14.63;;;3.60;;
14554;SDS011;7364;50.870;4.722;2023-09-19T04:24:36;9.30;;;3.77;;
14554;SDS011;7364;50.870;4.722;2023-09-19T04:27:03;8.37;;;2.93;;
14554;SDS011;7364;50.870;4.722;2023-09-19T04:29:33;8.70;;;3.00;;
14554;SDS011;7364;50.870;4.722;2023-09-19T04:32:00;7.73;;;3.57;;
14554;SDS011;7364;50.870;4.722;2023-09-19T04:34:29;12.10;;;4.20;;
14554;SDS011;7364;50.870;4.722;2023-09-19T04:36:58;10.27;;;3.03;;
14554;SDS011;7364;50.870;4.722;2023-09-19T04:39:26;6.73;;;2.57;;
14554;SDS011;7364;50.870;4.722;2023-09-19T04:41:53;11.13;;;3.53;;
14554;SDS011;7364;50.870;4.722;2023-09-19T04:44:22;11.77;;;3.93;;
14554;SDS011;7364;50.870;4.722;2023-09-19T04:46:50;11.23;;;3.33;;
14554;SDS011;7364;50.870;4.722;2023-09-19T04:49:17;11.20;;;3.37;;
14554;SDS011;7364;50.870;4.722;2023-09-19T04:51:45;8.87;;;3.73;;
14554;SDS011;7364;50.870;4.722;2023-09-19T04:54:15;12.17;;;3.77;;
14554;SDS011;7364;50.870;4.722;2023-09-19T04:56:43;7.80;;;3.50;;
14554;SDS011;7364;50.870;4.722;2023-09-19T04:59:10;14.93;;;3.83;;
14554;SDS011;7364;50.870;4.722;2023-09-19T05:01:37;10.63;;;3.30;;
14554;SDS011;7364;50.870;4.722;2023-09-19T05:04:05;12.20;;;3.57;;
14554;SDS011;7364;50.870;4.722;2023-09-19T05:06:32;6.83;;;2.97;;
14554;SDS011;7364;50.870;4.722;2023-09-19T05:09:00;10.60;;;3.93;;
14554;SDS011;7364;50.870;4.722;2023-09-19T05:11:32;8.60;;;3.83;;
14554;SDS011;7364;50.870;4.722;2023-09-19T05:13:59;8.67;;;3.43;;
14554;SDS011;7364;50.870;4.722;2023-09-19T05:16:30;8.50;;;2.87;;
14554;SDS011;7364;50.870;4.722;2023-09-19T05:18:59;12.00;;;3.83;;
14554;SDS011;7364;50.870;4.722;2023-09-19T05:21:26;8.67;;;3.43;;
14554;SDS011;7364;50.870;4.722;2023-09-19T05:23:55;8.53;;;3.40;;
14554;SDS011;7364;50.870;4.722;2023-09-19T05:26:23;15.87;;;4.93;;
14554;SDS011;7364;50.870;4.722;2023-09-19T05:28:51;22.47;;;5.40;;
14554;SDS011;7364;50.870;4.722;2023-09-19T05:31:19;12.67;;;3.80;;
14554;SDS011;7364;50.870;4.722;2023-09-19T05:33:46;13.00;;;4.73;;
14554;SDS011;7364;50.870;4.722;2023-09-19T05:36:13;13.67;;;3.67;;
14554;SDS011;7364;50.870;4.722;2023-09-19T05:38:42;10.77;;;3.00;;
14554;SDS011;7364;50.870;4.722;2023-09-19T05:41:09;12.73;;;3.93;;
14554;SDS011;7364;50.870;4.722;2023-09-19T05:43:39;11.07;;;3.50;;
14554;SDS011;7364;50.870;4.722;2023-09-19T05:46:08;5.93;;;3.00;;
14554;SDS011;7364;50.870;4.722;2023-09-19T05:48:36;14.57;;;3.17;;
14554;SDS011;7364;50.870;4.722;2023-09-19T05:51:04;8.57;;;3.20;;
14554;SDS011;7364;50.870;4.722;2023-09-19T05:53:32;7.57;;;3.00;;
14554;SDS011;7364;50.870;4.722;2023-09-19T05:56:00;8.57;;;3.27;;
14554;SDS011;7364;50.870;4.722;2023-09-19T05:58:27;6.93;;;3.00;;
14554;SDS011;7364;50.870;4.722;2023-09-19T06:00:55;7.40;;;3.27;;
14554;SDS011;7364;50.870;4.722;2023-09-19T06:03:24;7.80;;;2.73;;
14554;SDS011;7364;50.870;4.722;2023-09-19T06:05:51;9.90;;;3.53;;
14554;SDS011;7364;50.870;4.722;2023-09-19T06:08:22;10.33;;;3.40;;
14554;SDS011;7364;50.870;4.722;2023-09-19T06:10:51;10.23;;;3.43;;
14554;SDS011;7364;50.870;4.722;2023-09-19T06:13:18;14.00;;;3.10;;
14554;SDS011;7364;50.870;4.722;2023-09-19T06:15:46;8.90;;;3.30;;
14554;SDS011;7364;50.870;4.722;2023-09-19T06:18:14;9.53;;;3.23;;
14554;SDS011;7364;50.870;4.722;2023-09-19T06:20:46;8.10;;;2.80;;
14554;SDS011;7364;50.870;4.722;2023-09-19T06:23:16;10.00;;;3.10;;
14554;SDS011;7364;50.870;4.722;2023-09-19T06:25:46;6.73;;;3.27;;
14554;SDS011;7364;50.870;4.722;2023-09-19T06:28:14;7.33;;;2.77;;
14554;SDS011;7364;50.870;4.722;2023-09-19T06:30:45;10.93;;;3.10;;
14554;SDS011;7364;50.870;4.722;2023-09-19T06:33:13;5.37;;;2.47;;
14554;SDS011;7364;50.870;4.722;2023-09-19T06:35:42;8.47;;;2.53;;
14554;SDS011;7364;50.870;4.722;2023-09-19T06:38:14;6.83;;;2.47;;
14554;SDS011;7364;50.870;4.722;2023-09-19T06:40:44;9.00;;;2.63;;
14554;SDS011;7364;50.870;4.722;2023-09-19T06:43:11;14.70;;;3.90;;
14554;SDS011;7364;50.870;4.722;2023-09-19T06:45:39;9.33;;;3.47;;
14554;SDS011;7364;50.870;4.722;2023-09-19T06:48:07;8.13;;;2.53;;
14554;SDS011;7364;50.870;4.722;2023-09-19T06:50:35;10.60;;;3.50;;
14554;SDS011;7364;50.870;4.722;2023-09-19T06:53:04;9.07;;;3.10;;
14554;SDS011;7364;50.870;4.722;2023-09-19T06:55:32;10.30;;;3.03;;
14554;SDS011;7364;50.870;4.722;2023-09-19T06:57:59;9.60;;;3.30;;
14554;SDS011;7364;50.870;4.722;2023-09-19T07:00:27;9.30;;;3.30;;
14554;SDS011;7364;50.870;4.722;2023-09-19T07:02:57;9.80;;;3.40;;
14554;SDS011;7364;50.870;4.722;2023-09-19T07:05:26;9.33;;;2.80;;
14554;SDS011;7364;50.870;4.722;2023-09-19T07:07:54;11.60;;;2.70;;
14554;SDS011;7364;50.870;4.722;2023-09-19T07:10:24;6.73;;;2.93;;
14554;SDS011;7364;50.870;4.722;2023-09-19T07:12:57;9.37;;;3.40;;
14554;SDS011;7364;50.870;4.722;2023-09-19T07:15:25;13.83;;;3.37;;
14554;SDS011;7364;50.870;4.722;2023-09-19T07:17:53;10.33;;;3.27;;
14554;SDS011;7364;50.870;4.722;2023-09-19T07:20:21;8.27;;;4.00;;
14554;SDS011;7364;50.870;4.722;2023-09-19T07:22:51;8.47;;;2.97;;
14554;SDS011;7364;50.870;4.722;2023-09-19T07:25:20;12.90;;;3.17;;
14554;SDS011;7364;50.870;4.722;2023-09-19T07:27:48;8.73;;;2.63;;
14554;SDS011;7364;50.870;4.722;2023-09-19T07:30:17;8.13;;;3.00;;
14554;SDS011;7364;50.870;4.722;2023-09-19T07:32:44;12.03;;;3.90;;
14554;SDS011;7364;50.870;4.722;2023-09-19T07:35:12;15.20;;;3.10;;
14554;SDS011;7364;50.870;4.722;2023-09-19T07:37:40;9.97;;;2.87;;
14554;SDS011;7364;50.870;4.722;2023-09-19T07:40:07;11.43;;;3.10;;
14554;SDS011;7364;50.870;4.722;2023-09-19T07:42:35;5.40;;;2.77;;
14554;SDS011;7364;50.870;4.722;2023-09-19T07:45:06;6.50;;;3.07;;
14554;SDS011;7364;50.870;4.722;2023-09-19T07:47:43;7.10;;;3.30;;
14554;SDS011;7364;50.870;4.722;2023-09-19T07:50:12;6.67;;;3.13;;
14554;SDS011;7364;50.870;4.722;2023-09-19T07:52:41;10.10;;;3.27;;
14554;SDS011;7364;50.870;4.722;2023-09-19T07:55:09;12.67;;;3.57;;
14554;SDS011;7364;50.870;4.722;2023-09-19T07:57:41;10.03;;;2.73;;
14554;SDS011;7364;50.870;4.722;2023-09-19T08:00:09;7.43;;;3.13;;
14554;SDS011;7364;50.870;4.722;2023-09-19T08:02:37;9.00;;;3.30;;
14554;SDS011;7364;50.870;4.722;2023-09-19T08:05:07;9.27;;;3.77;;
14554;SDS011;7364;50.870;4.722;2023-09-19T08:07:36;11.23;;;3.57;;
14554;SDS011;7364;50.870;4.722;2023-09-19T08:10:04;9.87;;;2.87;;
14554;SDS011;7364;50.870;4.722;2023-09-19T08:12:33;8.93;;;3.77;;
14554;SDS011;7364;50.870;4.722;2023-09-19T08:15:01;7.73;;;3.70;;
14554;SDS011;7364;50.870;4.722;2023-09-19T08:17:29;11.83;;;3.40;;
14554;SDS011;7364;50.870;4.722;2023-09-19T08:20:01;8.13;;;3.53;;
14554;SDS011;7364;50.870;4.722;2023-09-19T08:22:31;11.03;;;3.63;;
14554;SDS011;7364;50.870;4.722;2023-09-19T08:25:00;9.07;;;2.67;;
14554;SDS011;7364;50.870;4.722;2023-09-19T08:27:30;6.27;;;2.87;;
14554;SDS011;7364;50.870;4.722;2023-09-19T08:29:58;10.03;;;3.27;;
14554;SDS011;7364;50.870;4.722;2023-09-19T08:32:25;11.60;;;3.20;;
14554;SDS011;7364;50.870;4.722;2023-09-19T08:34:52;6.73;;;3.33;;
14554;SDS011;7364;50.870;4.722;2023-09-19T08:37:20;7.60;;;3.03;;
14554;SDS011;7364;50.870;4.722;2023-09-19T08:39:48;8.77;;;2.87;;
14554;SDS011;7364;50.870;4.722;2023-09-19T08:42:16;12.50;;;2.83;;
14554;SDS011;7364;50.870;4.722;2023-09-19T08:44:46;13.80;;;3.23;;
14554;SDS011;7364;50.870;4.722;2023-09-19T08:47:14;6.40;;;3.23;;
14554;SDS011;7364;50.870;4.722;2023-09-19T08:49:45;10.70;;;3.63;;
14554;SDS011;7364;50.870;4.722;2023-09-19T08:52:21;9.80;;;3.17;;
14554;SDS011;7364;50.870;4.722;2023-09-19T08:54:58;7.10;;;2.83;;
14554;SDS011;7364;50.870;4.722;2023-09-19T08:57:29;12.40;;;3.00;;
14554;SDS011;7364;50.870;4.722;2023-09-19T09:00:05;9.80;;;3.40;;
14554;SDS011;7364;50.870;4.722;2023-09-19T09:02:36;13.30;;;4.17;;
14554;SDS011;7364;50.870;4.722;2023-09-19T09:05:05;5.73;;;3.73;;
14554;SDS011;7364;50.870;4.722;2023-09-19T09:07:35;15.13;;;3.70;;
14554;SDS011;7364;50.870;4.722;2023-09-19T09:10:05;9.50;;;3.23;;
14554;SDS011;7364;50.870;4.722;2023-09-19T09:12:34;9.00;;;3.27;;
14554;SDS011;7364;50.870;4.722;2023-09-19T09:15:06;8.50;;;3.50;;
14554;SDS011;7364;50.870;4.722;2023-09-19T09:17:37;10.87;;;3.53;;
14554;SDS011;7364;50.870;4.722;2023-09-19T09:20:04;15.33;;;2.93;;
14554;SDS011;7364;50.870;4.722;2023-09-19T09:22:35;7.77;;;3.43;;
14554;SDS011;7364;50.870;4.722;2023-09-19T09:27:40;8.07;;;3.50;;
14554;SDS011;7364;50.870;4.722;2023-09-19T09:30:08;8.37;;;3.50;;
14554;SDS011;7364;50.870;4.722;2023-09-19T09:32:38;10.93;;;3.20;;
14554;SDS011;7364;50.870;4.722;2023-09-19T09:35:07;10.53;;;3.30;;
14554;SDS011;7364;50.870;4.722;2023-09-19T09:37:36;12.10;;;2.93;;
14554;SDS011;7364;50.870;4.722;2023-09-19T09:40:04;6.97;;;3.00;;
14554;SDS011;7364;50.870;4.722;2023-09-19T09:42:50;8.60;;;2.97;;
14554;SDS011;7364;50.870;4.722;2023-09-19T09:45:24;7.80;;;3.23;;
14554;SDS011;7364;50.870;4.722;2023-09-19T09:48:03;11.00;;;3.43;;
14554;SDS011;7364;50.870;4.722;2023-09-19T09:50:45;10.23;;;3.73;;
14554;SDS011;7364;50.870;4.722;2023-09-19T09:53:21;14.73;;;3.23;;
14554;SDS011;7364;50.870;4.722;2023-09-19T09:56:03;7.27;;;3.07;;
14554;SDS011;7364;50.870;4.722;2023-09-19T09:58:34;8.03;;;3.40;;
14554;SDS011;7364;50.870;4.722;2023-09-19T10:01:03;4.53;;;2.17;;
14554;SDS011;7364;50.870;4.722;2023-09-19T10:03:36;5.50;;;2.70;;
14554;SDS011;7364;50.870;4.722;2023-09-19T10:06:10;6.70;;;2.77;;
14554;SDS011;7364;50.870;4.722;2023-09-19T10:08:58;8.37;;;2.33;;
14554;SDS011;7364;50.870;4.722;2023-09-19T10:11:40;9.63;;;2.93;;
14554;SDS011;7364;50.870;4.722;2023-09-19T10:14:11;6.20;;;2.43;;
14554;SDS011;7364;50.870;4.722;2023-09-19T10:16:40;5.23;;;2.47;;
14554;SDS011;7364;50.870;4.722;2023-09-19T10:19:13;6.57;;;2.00;;
14554;SDS011;7364;50.870;4.722;2023-09-19T10:21:48;5.97;;;2.00;;
14554;SDS011;7364;50.870;4.722;2023-09-19T10:24:17;4.67;;;2.03;;
14554;SDS011;7364;50.870;4.722;2023-09-19T10:26:47;4.77;;;2.13;;
14554;SDS011;7364;50.870;4.722;2023-09-19T10:29:20;3.57;;;2.03;;
14554;SDS011;7364;50.870;4.722;2023-09-19T10:32:02;7.73;;;2.73;;
14554;SDS011;7364;50.870;4.722;2023-09-19T10:34:33;7.77;;;2.70;;
14554;SDS011;7364;50.870;4.722;2023-09-19T10:37:11;4.03;;;1.90;;
14554;SDS011;7364;50.870;4.722;2023-09-19T10:39:47;4.00;;;1.87;;
14554;SDS011;7364;50.870;4.722;2023-09-19T10:42:19;5.80;;;2.17;;
14554;SDS011;7364;50.870;4.722;2023-09-19T10:44:57;4.90;;;2.23;;
14554;SDS011;7364;50.870;4.722;2023-09-19T10:47:27;9.03;;;2.27;;
14554;SDS011;7364;50.870;4.722;2023-09-19T10:49:57;6.73;;;2.40;;
14554;SDS011;7364;50.870;4.722;2023-09-19T10:52:33;3.60;;;1.83;;
14554;SDS011;7364;50.870;4.722;2023-09-19T10:55:14;3.40;;;1.60;;
14554;SDS011;7364;50.870;4.722;2023-09-19T10:57:44;5.20;;;1.70;;
14554;SDS011;7364;50.870;4.722;2023-09-19T11:00:15;6.10;;;1.77;;
14554;SDS011;7364;50.870;4.722;2023-09-19T11:06:01;3.47;;;1.80;;
14554;SDS011;7364;50.870;4.722;2023-09-19T11:08:56;7.70;;;2.20;;
14554;SDS011;7364;50.870;4.722;2023-09-19T11:11:47;4.23;;;2.23;;
14554;SDS011;7364;50.870;4.722;2023-09-19T11:14:41;5.00;;;1.83;;
14554;SDS011;7364;50.870;4.722;2023-09-19T11:20:19;4.67;;;1.90;;
14554;SDS011;7364;50.870;4.722;2023-09-19T11:25:51;3.90;;;1.73;;
14554;SDS011;7364;50.870;4.722;2023-09-19T11:28:32;4.00;;;1.70;;
14554;SDS011;7364;50.870;4.722;2023-09-19T11:40:11;4.43;;;2.00;;
14554;SDS011;7364;50.870;4.722;2023-09-19T11:42:42;5.57;;;1.97;;
14554;SDS011;7364;50.870;4.722;2023-09-19T11:48:23;4.57;;;1.90;;
14554;SDS011;7364;50.870;4.722;2023-09-19T11:50:53;4.43;;;1.67;;
14554;SDS011;7364;50.870;4.722;2023-09-19T11:53:22;6.40;;;1.80;;
14554;SDS011;7364;50.870;4.722;2023-09-19T11:55:50;4.07;;;1.43;;
14554;SDS011;7364;50.870;4.722;2023-09-19T11:58:18;4.40;;;1.50;;
14554;SDS011;7364;50.870;4.722;2023-09-19T12:00:46;3.27;;;1.10;;
14554;SDS011;7364;50.870;4.722;2023-09-19T12:03:22;6.67;;;2.17;;
14554;SDS011;7364;50.870;4.722;2023-09-19T12:05:57;3.57;;;1.50;;
14554;SDS011;7364;50.870;4.722;2023-09-19T12:08:27;3.30;;;1.50;;
14554;SDS011;7364;50.870;4.722;2023-09-19T12:10:55;5.13;;;1.43;;
14554;SDS011;7364;50.870;4.722;2023-09-19T12:13:23;6.97;;;1.40;;
14554;SDS011;7364;50.870;4.722;2023-09-19T12:15:51;4.93;;;1.50;;
14554;SDS011;7364;50.870;4.722;2023-09-19T12:18:27;5.20;;;1.30;;
14554;SDS011;7364;50.870;4.722;2023-09-19T12:20:55;4.07;;;1.27;;
14554;SDS011;7364;50.870;4.722;2023-09-19T12:23:24;5.80;;;1.53;;
14554;SDS011;7364;50.870;4.722;2023-09-19T12:25:52;6.07;;;1.63;;
14554;SDS011;7364;50.870;4.722;2023-09-19T12:28:22;4.40;;;1.33;;
14554;SDS011;7364;50.870;4.722;2023-09-19T12:30:55;3.10;;;1.37;;
14554;SDS011;7364;50.870;4.722;2023-09-19T12:33:23;5.47;;;1.30;;
14554;SDS011;7364;50.870;4.722;2023-09-19T12:35:51;5.37;;;1.70;;
14554;SDS011;7364;50.870;4.722;2023-09-19T12:38:24;2.70;;;1.20;;
14554;SDS011;7364;50.870;4.722;2023-09-19T12:40:54;5.80;;;1.70;;
14554;SDS011;7364;50.870;4.722;2023-09-19T12:43:25;4.37;;;1.40;;
14554;SDS011;7364;50.870;4.722;2023-09-19T12:45:56;3.90;;;1.50;;
14554;SDS011;7364;50.870;4.722;2023-09-19T12:48:25;4.97;;;1.60;;
14554;SDS011;7364;50.870;4.722;2023-09-19T12:51:00;3.37;;;1.50;;
14554;SDS011;7364;50.870;4.722;2023-09-19T12:53:34;5.57;;;1.30;;
14554;SDS011;7364;50.870;4.722;2023-09-19T12:56:05;3.47;;;1.60;;
14554;SDS011;7364;50.870;4.722;2023-09-19T12:58:35;6.10;;;1.70;;
14554;SDS011;7364;50.870;4.722;2023-09-19T13:01:14;3.00;;;1.33;;
14554;SDS011;7364;50.870;4.722;2023-09-19T13:03:42;4.43;;;1.70;;
14554;SDS011;7364;50.870;4.722;2023-09-19T13:06:10;5.20;;;1.60;;
14554;SDS011;7364;50.870;4.722;2023-09-19T13:08:40;5.23;;;1.90;;
14554;SDS011;7364;50.870;4.722;2023-09-19T13:11:10;6.07;;;1.60;;
14554;SDS011;7364;50.870;4.722;2023-09-19T13:13:39;6.00;;;1.63;;
14554;SDS011;7364;50.870;4.722;2023-09-19T13:16:09;4.47;;;1.50;;
14554;SDS011;7364;50.870;4.722;2023-09-19T13:18:46;4.47;;;1.80;;
14554;SDS011;7364;50.870;4.722;2023-09-19T13:21:17;5.10;;;1.90;;
14554;SDS011;7364;50.870;4.722;2023-09-19T13:23:56;6.00;;;1.60;;
14554;SDS011;7364;50.870;4.722;2023-09-19T13:26:44;4.10;;;1.47;;
14554;SDS011;7364;50.870;4.722;2023-09-19T13:29:11;5.07;;;1.70;;
14554;SDS011;7364;50.870;4.722;2023-09-19T13:31:39;3.30;;;1.50;;
14554;SDS011;7364;50.870;4.722;2023-09-19T13:34:08;5.07;;;1.40;;
14554;SDS011;7364;50.870;4.722;2023-09-19T13:36:35;4.87;;;1.90;;
14554;SDS011;7364;50.870;4.722;2023-09-19T13:39:04;3.70;;;1.53;;
14554;SDS011;7364;50.870;4.722;2023-09-19T13:41:34;4.73;;;1.60;;
14554;SDS011;7364;50.870;4.722;2023-09-19T13:44:02;3.90;;;1.47;;
14554;SDS011;7364;50.870;4.722;2023-09-19T13:46:29;4.93;;;1.77;;
14554;SDS011;7364;50.870;4.722;2023-09-19T13:49:00;3.90;;;1.03;;
14554;SDS011;7364;50.870;4.722;2023-09-19T13:51:28;6.00;;;1.77;;
14554;SDS011;7364;50.870;4.722;2023-09-19T13:53:57;2.57;;;1.40;;
14554;SDS011;7364;50.870;4.722;2023-09-19T13:56:26;4.53;;;1.50;;
14554;SDS011;7364;50.870;4.722;2023-09-19T13:58:56;1.83;;;1.10;;
14554;SDS011;7364;50.870;4.722;2023-09-19T14:01:24;4.60;;;1.27;;
14554;SDS011;7364;50.870;4.722;2023-09-19T14:03:52;4.47;;;1.60;;
14554;SDS011;7364;50.870;4.722;2023-09-19T14:06:22;4.13;;;1.47;;
14554;SDS011;7364;50.870;4.722;2023-09-19T14:08:51;3.33;;;1.43;;
14554;SDS011;7364;50.870;4.722;2023-09-19T14:11:19;2.37;;;1.27;;
14554;SDS011;7364;50.870;4.722;2023-09-19T14:13:47;3.50;;;1.53;;
14554;SDS011;7364;50.870;4.722;2023-09-19T14:16:15;4.20;;;1.47;;
14554;SDS011;7364;50.870;4.722;2023-09-19T14:18:44;3.67;;;1.50;;
14554;SDS011;7364;50.870;4.722;2023-09-19T14:21:12;2.67;;;1.63;;
14554;SDS011;7364;50.870;4.722;2023-09-19T14:23:39;4.47;;;1.60;;
14554;SDS011;7364;50.870;4.722;2023-09-19T14:26:08;3.37;;;1.67;;
14554;SDS011;7364;50.870;4.722;2023-09-19T14:28:36;5.33;;;1.80;;
14554;SDS011;7364;50.870;4.722;2023-09-19T14:31:06;6.53;;;2.13;;
14554;SDS011;7364;50.870;4.722;2023-09-19T14:33:36;4.13;;;1.73;;
14554;SDS011;7364;50.870;4.722;2023-09-19T14:36:05;6.13;;;1.80;;
14554;SDS011;7364;50.870;4.722;2023-09-19T14:38:34;7.47;;;1.93;;
14554;SDS011;7364;50.870;4.722;2023-09-19T14:41:01;8.30;;;1.97;;
14554;SDS011;7364;50.870;4.722;2023-09-19T14:43:29;4.20;;;2.17;;
14554;SDS011;7364;50.870;4.722;2023-09-19T14:46:01;3.27;;;1.80;;
14554;SDS011;7364;50.870;4.722;2023-09-19T14:48:31;6.33;;;1.87;;
14554;SDS011;7364;50.870;4.722;2023-09-19T14:51:01;5.80;;;2.20;;
14554;SDS011;7364;50.870;4.722;2023-09-19T14:53:32;8.07;;;2.00;;
14554;SDS011;7364;50.870;4.722;2023-09-19T14:56:00;6.43;;;1.80;;
14554;SDS011;7364;50.870;4.722;2023-09-19T14:58:28;4.30;;;1.73;;
14554;SDS011;7364;50.870;4.722;2023-09-19T15:01:02;6.90;;;1.90;;
14554;SDS011;7364;50.870;4.722;2023-09-19T15:03:32;4.57;;;1.77;;
14554;SDS011;7364;50.870;4.722;2023-09-19T15:06:00;5.10;;;1.67;;
14554;SDS011;7364;50.870;4.722;2023-09-19T15:08:28;6.50;;;2.03;;
14554;SDS011;7364;50.870;4.722;2023-09-19T15:10:55;4.40;;;1.80;;
14554;SDS011;7364;50.870;4.722;2023-09-19T15:13:23;4.03;;;1.90;;
14554;SDS011;7364;50.870;4.722;2023-09-19T15:15:57;4.03;;;2.17;;
14554;SDS011;7364;50.870;4.722;2023-09-19T15:18:26;3.97;;;1.80;;
14554;SDS011;7364;50.870;4.722;2023-09-19T15:20:55;4.23;;;1.80;;
14554;SDS011;7364;50.870;4.722;2023-09-19T15:23:22;3.43;;;1.70;;
14554;SDS011;7364;50.870;4.722;2023-09-19T15:25:50;5.70;;;1.90;;
14554;SDS011;7364;50.870;4.722;2023-09-19T15:28:18;4.10;;;1.90;;
14554;SDS011;7364;50.870;4.722;2023-09-19T15:30:48;8.23;;;2.57;;
14554;SDS011;7364;50.870;4.722;2023-09-19T15:33:15;2.63;;;1.57;;
14554;SDS011;7364;50.870;4.722;2023-09-19T15:35:42;5.03;;;2.03;;
14554;SDS011;7364;50.870;4.722;2023-09-19T15:38:11;5.67;;;1.90;;
14554;SDS011;7364;50.870;4.722;2023-09-19T15:40:45;2.93;;;1.67;;
14554;SDS011;7364;50.870;4.722;2023-09-19T15:43:13;5.17;;;2.10;;